You are not logged in, Click here to log in
機場資訊:PGUM Welcome to Taiwan Airways 台灣虛擬航空
ICAO: PGUM Country: 美國屬地關島首府阿加尼亞東方
Latitude: 13.4831 Longitude: 144.796
Total Arrivals: 16 Total Departures: 10
Latest Arrival: BR20 (RCTP-PGUM)KE. CHIH-HAO Latest Departure: BR19 (PGUM-RCTP)KE. CHIH-HAO
Scenery:
METAR : PGUM 151654Z 12004KT 10SM CLR 27/24 A2985 RMK AO2 SLP101 T02670244 $

安東尼奧·汪帕特國際機場GUM

You are accessing this site from IP address 18.205.96.39. Virtual Airline. CMS by phpVMS.Website designed by Zumeweb and edited by Theo Bearman.
There is 0 User(s) Online: | and 11 Guest(s) Online.
All information on this site is for fight simulation purposes only. This site is for flight logging for pilots of Virtual Airline&模擬飛行論壇 FlySim only.